Aérodrome :
LOGIN :

S'inscrire | Disclaimer

   EN    FR    IT 

 










Légende :    VFR   VFR Marginal   IFR   IFR Intensif   IFR Très Intensif
Visi : 
Plafond : 
>= 8 km
>= 3000ft
5 à 8 km
1000 à 3000 ft
1500m à 5 km
500 à 1000 ft
800 à 1500m
200 à 500 ft
< 800m
< 200 ft
Symboles :   Orages  Brouillard  Fortes neiges  Fortes précipitations  Vent > 20 kt
SIGMETs :   Divers  Orages  Givrage  Turbulence  Onde Orograph.  Cendres Volcan.






- Altitude de l'aérodrome : 83 ft
- Code IATA : LHR


EGLL - London Heathrow

DERNIER METAR :
  • 031950Z AUTO 02009KT 330V060 9999 NCD 15/08 Q1007

METARs EXPIRÉS :
  • 031920Z AUTO 03009KT 340V060 9999 NCD 15/08 Q1007 NOSIG
  • 031850Z AUTO 02009KT 340V060 9999 NCD 15/09 Q1007 NOSIG
  • 031820Z AUTO 01008KT 330V040 9999 NCD 15/09 Q1007 NOSIG
  • 031750Z AUTO 02008KT 340V050 9999 -RA NCD 16/09 Q1007
  • 031720Z AUTO 01009KT 330V050 9999 -RA NCD 16/10 Q1007 NOSIG

TAF TAF EGLL
Valide du 03 à 18h jusqu'au 05 à 00h UTC


031652Z 0318/0424 04008KT 9999 SCT025
TEMPO 0318/0322 8000 -RA
TEMPO 0322/0408 6000 -RADZ BKN012
BECMG 0400/0403 34010KT
PROB30
TEMPO 0415/0424 7000 SHRA
BECMG 0418/0421 28008KT



MET'MAP, la Météo Aéronautique d'un coup d'oeil ! - Copyright ORBIFLY Décembre 2007 - Disclaimer

ORBIFLY MET'MAP TEAM :

Programmation & Développement : Alexandra Zaïnal
Sur une idée originale de : Baudouin d'Aumeries
Assistance à la programmation : Marc-Olivier Méhu
Soutien technique & logistique : Manuel Goepfert

Contact : metmap@orbifly.com




SOURCES & CREDITS :

   NOAA